sensor_id;sensor_type;location;lat;lon;timestamp;P1;durP1;ratioP1;P2;durP2;ratioP2
35877;SDS011;21982;49.804;24.072;2023-05-14T00:02:06;7.57;;;3.20;;
35877;SDS011;21982;49.804;24.072;2023-05-14T00:04:31;7.30;;;2.97;;
35877;SDS011;21982;49.804;24.072;2023-05-14T00:06:56;5.90;;;3.03;;
35877;SDS011;21982;49.804;24.072;2023-05-14T00:09:22;8.45;;;3.47;;
35877;SDS011;21982;49.804;24.072;2023-05-14T00:11:48;5.15;;;3.10;;
35877;SDS011;21982;49.804;24.072;2023-05-14T00:14:13;7.55;;;3.20;;
35877;SDS011;21982;49.804;24.072;2023-05-14T00:16:39;5.68;;;2.65;;
35877;SDS011;21982;49.804;24.072;2023-05-14T00:19:04;6.35;;;2.58;;
35877;SDS011;21982;49.804;24.072;2023-05-14T00:21:30;5.43;;;2.63;;
35877;SDS011;21982;49.804;24.072;2023-05-14T00:23:56;6.95;;;2.67;;
35877;SDS011;21982;49.804;24.072;2023-05-14T00:28:56;9.45;;;3.17;;
35877;SDS011;21982;49.804;24.072;2023-05-14T00:31:22;7.07;;;2.90;;
35877;SDS011;21982;49.804;24.072;2023-05-14T00:33:47;6.97;;;3.58;;
35877;SDS011;21982;49.804;24.072;2023-05-14T00:36:13;9.68;;;4.30;;
35877;SDS011;21982;49.804;24.072;2023-05-14T00:38:38;11.70;;;3.30;;
35877;SDS011;21982;49.804;24.072;2023-05-14T00:41:03;8.95;;;3.45;;
35877;SDS011;21982;49.804;24.072;2023-05-14T00:43:29;7.22;;;3.15;;
35877;SDS011;21982;49.804;24.072;2023-05-14T00:45:55;7.10;;;3.00;;
35877;SDS011;21982;49.804;24.072;2023-05-14T00:48:22;5.78;;;3.33;;
35877;SDS011;21982;49.804;24.072;2023-05-14T00:50:48;10.57;;;3.30;;
35877;SDS011;21982;49.804;24.072;2023-05-14T00:53:15;13.35;;;5.10;;
35877;SDS011;21982;49.804;24.072;2023-05-14T00:55:43;10.25;;;3.00;;
35877;SDS011;21982;49.804;24.072;2023-05-14T00:58:11;6.63;;;2.53;;
35877;SDS011;21982;49.804;24.072;2023-05-14T01:00:38;6.80;;;2.38;;
35877;SDS011;21982;49.804;24.072;2023-05-14T01:03:05;9.20;;;2.90;;
35877;SDS011;21982;49.804;24.072;2023-05-14T01:08:21;6.93;;;2.80;;
35877;SDS011;21982;49.804;24.072;2023-05-14T01:16:27;4.78;;;2.20;;
35877;SDS011;21982;49.804;24.072;2023-05-14T01:18:56;6.28;;;2.25;;
35877;SDS011;21982;49.804;24.072;2023-05-14T01:21:35;8.27;;;2.30;;
35877;SDS011;21982;49.804;24.072;2023-05-14T01:24:02;7.45;;;2.30;;
35877;SDS011;21982;49.804;24.072;2023-05-14T01:26:28;6.93;;;2.38;;
35877;SDS011;21982;49.804;24.072;2023-05-14T01:29:20;4.57;;;2.38;;
35877;SDS011;21982;49.804;24.072;2023-05-14T01:31:47;5.38;;;2.63;;
35877;SDS011;21982;49.804;24.072;2023-05-14T01:34:15;5.90;;;2.63;;
35877;SDS011;21982;49.804;24.072;2023-05-14T01:36:45;5.00;;;2.17;;
35877;SDS011;21982;49.804;24.072;2023-05-14T01:39:12;6.60;;;2.85;;
35877;SDS011;21982;49.804;24.072;2023-05-14T01:41:39;5.03;;;2.50;;
35877;SDS011;21982;49.804;24.072;2023-05-14T01:44:07;5.55;;;2.63;;
35877;SDS011;21982;49.804;24.072;2023-05-14T01:46:33;5.57;;;2.78;;
35877;SDS011;21982;49.804;24.072;2023-05-14T01:48:59;5.50;;;2.72;;
35877;SDS011;21982;49.804;24.072;2023-05-14T01:51:25;5.15;;;2.67;;
35877;SDS011;21982;49.804;24.072;2023-05-14T01:53:50;4.88;;;2.85;;
35877;SDS011;21982;49.804;24.072;2023-05-14T01:56:16;5.15;;;3.00;;
35877;SDS011;21982;49.804;24.072;2023-05-14T01:58:42;4.75;;;2.55;;
35877;SDS011;21982;49.804;24.072;2023-05-14T02:01:07;5.38;;;2.58;;
35877;SDS011;21982;49.804;24.072;2023-05-14T02:03:34;5.55;;;2.70;;
35877;SDS011;21982;49.804;24.072;2023-05-14T02:06:00;6.07;;;3.30;;
35877;SDS011;21982;49.804;24.072;2023-05-14T02:08:25;8.10;;;2.90;;
35877;SDS011;21982;49.804;24.072;2023-05-14T02:10:52;6.65;;;3.08;;
35877;SDS011;21982;49.804;24.072;2023-05-14T02:13:19;6.45;;;3.33;;
35877;SDS011;21982;49.804;24.072;2023-05-14T02:15:45;5.75;;;3.25;;
35877;SDS011;21982;49.804;24.072;2023-05-14T02:18:12;7.13;;;2.80;;
35877;SDS011;21982;49.804;24.072;2023-05-14T02:20:37;6.43;;;2.83;;
35877;SDS011;21982;49.804;24.072;2023-05-14T02:23:02;6.30;;;2.70;;
35877;SDS011;21982;49.804;24.072;2023-05-14T02:25:28;5.75;;;2.83;;
35877;SDS011;21982;49.804;24.072;2023-05-14T02:27:56;7.97;;;2.95;;
35877;SDS011;21982;49.804;24.072;2023-05-14T02:30:23;4.75;;;2.50;;
35877;SDS011;21982;49.804;24.072;2023-05-14T02:32:48;5.45;;;3.00;;
35877;SDS011;21982;49.804;24.072;2023-05-14T02:35:15;9.20;;;2.92;;
35877;SDS011;21982;49.804;24.072;2023-05-14T02:37:40;8.90;;;3.50;;
35877;SDS011;21982;49.804;24.072;2023-05-14T02:40:06;6.68;;;3.35;;
35877;SDS011;21982;49.804;24.072;2023-05-14T02:42:32;7.68;;;3.50;;
35877;SDS011;21982;49.804;24.072;2023-05-14T02:44:58;7.50;;;3.30;;
35877;SDS011;21982;49.804;24.072;2023-05-14T02:47:23;6.20;;;3.95;;
35877;SDS011;21982;49.804;24.072;2023-05-14T02:49:48;8.93;;;3.47;;
35877;SDS011;21982;49.804;24.072;2023-05-14T02:52:14;8.45;;;3.17;;
35877;SDS011;21982;49.804;24.072;2023-05-14T02:54:39;5.60;;;3.78;;
35877;SDS011;21982;49.804;24.072;2023-05-14T02:57:05;10.32;;;3.08;;
35877;SDS011;21982;49.804;24.072;2023-05-14T02:59:30;6.15;;;3.00;;
35877;SDS011;21982;49.804;24.072;2023-05-14T03:01:55;8.85;;;3.90;;
35877;SDS011;21982;49.804;24.072;2023-05-14T03:04:21;6.97;;;4.05;;
35877;SDS011;21982;49.804;24.072;2023-05-14T03:06:47;4.85;;;2.90;;
35877;SDS011;21982;49.804;24.072;2023-05-14T03:09:13;7.60;;;3.95;;
35877;SDS011;21982;49.804;24.072;2023-05-14T03:11:39;10.00;;;5.07;;
35877;SDS011;21982;49.804;24.072;2023-05-14T03:14:05;7.82;;;4.63;;
35877;SDS011;21982;49.804;24.072;2023-05-14T03:16:31;8.30;;;4.15;;
35877;SDS011;21982;49.804;24.072;2023-05-14T03:18:56;7.72;;;3.20;;
35877;SDS011;21982;49.804;24.072;2023-05-14T03:21:21;8.77;;;4.50;;
35877;SDS011;21982;49.804;24.072;2023-05-14T03:23:47;8.43;;;3.80;;
35877;SDS011;21982;49.804;24.072;2023-05-14T03:26:12;10.05;;;3.75;;
35877;SDS011;21982;49.804;24.072;2023-05-14T03:28:38;7.47;;;4.10;;
35877;SDS011;21982;49.804;24.072;2023-05-14T03:31:04;10.15;;;3.88;;
35877;SDS011;21982;49.804;24.072;2023-05-14T03:33:30;7.80;;;3.83;;
35877;SDS011;21982;49.804;24.072;2023-05-14T03:35:56;6.80;;;3.85;;
35877;SDS011;21982;49.804;24.072;2023-05-14T03:38:21;7.57;;;3.85;;
35877;SDS011;21982;49.804;24.072;2023-05-14T03:40:46;7.75;;;3.40;;
35877;SDS011;21982;49.804;24.072;2023-05-14T03:43:12;3.92;;;2.55;;
35877;SDS011;21982;49.804;24.072;2023-05-14T03:45:38;6.43;;;3.00;;
35877;SDS011;21982;49.804;24.072;2023-05-14T03:48:04;6.03;;;3.20;;
35877;SDS011;21982;49.804;24.072;2023-05-14T03:50:30;7.85;;;3.45;;
35877;SDS011;21982;49.804;24.072;2023-05-14T03:52:56;8.15;;;3.47;;
35877;SDS011;21982;49.804;24.072;2023-05-14T03:55:21;7.32;;;3.20;;
35877;SDS011;21982;49.804;24.072;2023-05-14T03:57:47;4.38;;;2.72;;
35877;SDS011;21982;49.804;24.072;2023-05-14T04:00:14;8.23;;;3.15;;
35877;SDS011;21982;49.804;24.072;2023-05-14T04:02:39;7.28;;;3.83;;
35877;SDS011;21982;49.804;24.072;2023-05-14T04:05:05;10.48;;;3.30;;
35877;SDS011;21982;49.804;24.072;2023-05-14T04:07:31;7.88;;;3.17;;
35877;SDS011;21982;49.804;24.072;2023-05-14T04:09:56;6.93;;;3.45;;
35877;SDS011;21982;49.804;24.072;2023-05-14T04:12:21;9.20;;;4.15;;
35877;SDS011;21982;49.804;24.072;2023-05-14T04:14:47;6.85;;;4.28;;
35877;SDS011;21982;49.804;24.072;2023-05-14T04:17:12;6.18;;;2.92;;
35877;SDS011;21982;49.804;24.072;2023-05-14T04:19:38;10.30;;;3.08;;
35877;SDS011;21982;49.804;24.072;2023-05-14T04:22:04;5.90;;;3.85;;
35877;SDS011;21982;49.804;24.072;2023-05-14T04:24:30;14.40;;;3.47;;
35877;SDS011;21982;49.804;24.072;2023-05-14T04:26:55;5.75;;;3.42;;
35877;SDS011;21982;49.804;24.072;2023-05-14T04:29:20;6.47;;;3.60;;
35877;SDS011;21982;49.804;24.072;2023-05-14T04:31:48;8.25;;;3.80;;
35877;SDS011;21982;49.804;24.072;2023-05-14T04:34:14;5.93;;;3.78;;
35877;SDS011;21982;49.804;24.072;2023-05-14T04:36:39;8.07;;;3.70;;
35877;SDS011;21982;49.804;24.072;2023-05-14T04:39:05;8.60;;;3.40;;
35877;SDS011;21982;49.804;24.072;2023-05-14T04:41:30;8.95;;;3.63;;
35877;SDS011;21982;49.804;24.072;2023-05-14T04:43:56;6.18;;;3.55;;
35877;SDS011;21982;49.804;24.072;2023-05-14T04:46:23;7.90;;;3.22;;
35877;SDS011;21982;49.804;24.072;2023-05-14T04:48:48;7.55;;;3.92;;
35877;SDS011;21982;49.804;24.072;2023-05-14T04:51:14;7.65;;;3.22;;
35877;SDS011;21982;49.804;24.072;2023-05-14T04:53:39;7.68;;;3.83;;
35877;SDS011;21982;49.804;24.072;2023-05-14T04:56:06;9.18;;;3.47;;
35877;SDS011;21982;49.804;24.072;2023-05-14T04:58:32;8.93;;;3.28;;
35877;SDS011;21982;49.804;24.072;2023-05-14T05:00:58;8.18;;;3.35;;
35877;SDS011;21982;49.804;24.072;2023-05-14T05:03:23;7.20;;;4.05;;
35877;SDS011;21982;49.804;24.072;2023-05-14T05:05:49;6.18;;;3.35;;
35877;SDS011;21982;49.804;24.072;2023-05-14T05:08:14;5.93;;;2.85;;
35877;SDS011;21982;49.804;24.072;2023-05-14T05:10:41;7.55;;;3.67;;
35877;SDS011;21982;49.804;24.072;2023-05-14T05:13:06;6.55;;;3.33;;
35877;SDS011;21982;49.804;24.072;2023-05-14T05:15:32;7.43;;;3.83;;
35877;SDS011;21982;49.804;24.072;2023-05-14T05:17:57;12.82;;;3.50;;
35877;SDS011;21982;49.804;24.072;2023-05-14T05:20:23;6.32;;;3.47;;
35877;SDS011;21982;49.804;24.072;2023-05-14T05:22:48;5.45;;;2.78;;
35877;SDS011;21982;49.804;24.072;2023-05-14T05:25:14;5.70;;;3.05;;
35877;SDS011;21982;49.804;24.072;2023-05-14T05:27:40;8.25;;;3.20;;
35877;SDS011;21982;49.804;24.072;2023-05-14T05:30:05;7.05;;;3.60;;
35877;SDS011;21982;49.804;24.072;2023-05-14T05:32:31;5.90;;;3.20;;
35877;SDS011;21982;49.804;24.072;2023-05-14T05:34:57;6.25;;;3.20;;
35877;SDS011;21982;49.804;24.072;2023-05-14T05:37:25;9.55;;;3.83;;
35877;SDS011;21982;49.804;24.072;2023-05-14T05:39:50;6.60;;;3.92;;
35877;SDS011;21982;49.804;24.072;2023-05-14T05:42:16;8.40;;;3.20;;
35877;SDS011;21982;49.804;24.072;2023-05-14T05:44:41;5.65;;;2.63;;
35877;SDS011;21982;49.804;24.072;2023-05-14T05:47:06;7.03;;;3.50;;
35877;SDS011;21982;49.804;24.072;2023-05-14T05:49:32;6.32;;;3.22;;
35877;SDS011;21982;49.804;24.072;2023-05-14T05:51:57;7.75;;;3.50;;
35877;SDS011;21982;49.804;24.072;2023-05-14T05:54:23;9.55;;;3.65;;
35877;SDS011;21982;49.804;24.072;2023-05-14T05:56:51;7.80;;;3.92;;
35877;SDS011;21982;49.804;24.072;2023-05-14T05:59:16;6.18;;;3.25;;
35877;SDS011;21982;49.804;24.072;2023-05-14T06:01:42;7.20;;;2.78;;
35877;SDS011;21982;49.804;24.072;2023-05-14T06:04:07;6.88;;;3.30;;
35877;SDS011;21982;49.804;24.072;2023-05-14T06:06:33;7.55;;;3.03;;
35877;SDS011;21982;49.804;24.072;2023-05-14T06:08:59;14.20;;;4.30;;
35877;SDS011;21982;49.804;24.072;2023-05-14T06:11:25;9.15;;;3.05;;
35877;SDS011;21982;49.804;24.072;2023-05-14T06:13:52;9.63;;;3.35;;
35877;SDS011;21982;49.804;24.072;2023-05-14T06:16:19;7.95;;;2.88;;
35877;SDS011;21982;49.804;24.072;2023-05-14T06:18:47;5.40;;;3.58;;
35877;SDS011;21982;49.804;24.072;2023-05-14T06:21:13;4.75;;;2.80;;
35877;SDS011;21982;49.804;24.072;2023-05-14T06:23:38;9.98;;;2.58;;
35877;SDS011;21982;49.804;24.072;2023-05-14T06:26:05;6.57;;;2.58;;
35877;SDS011;21982;49.804;24.072;2023-05-14T06:28:31;6.35;;;2.85;;
35877;SDS011;21982;49.804;24.072;2023-05-14T06:30:56;7.18;;;2.92;;
35877;SDS011;21982;49.804;24.072;2023-05-14T06:33:21;7.60;;;2.92;;
35877;SDS011;21982;49.804;24.072;2023-05-14T06:35:53;7.07;;;2.85;;
35877;SDS011;21982;49.804;24.072;2023-05-14T06:38:19;4.75;;;2.58;;
35877;SDS011;21982;49.804;24.072;2023-05-14T06:40:44;6.70;;;3.00;;
35877;SDS011;21982;49.804;24.072;2023-05-14T06:45:47;7.22;;;2.97;;
35877;SDS011;21982;49.804;24.072;2023-05-14T06:48:13;5.75;;;3.00;;
35877;SDS011;21982;49.804;24.072;2023-05-14T06:50:38;7.70;;;2.75;;
35877;SDS011;21982;49.804;24.072;2023-05-14T06:53:04;5.28;;;1.92;;
35877;SDS011;21982;49.804;24.072;2023-05-14T06:55:29;11.32;;;2.78;;
35877;SDS011;21982;49.804;24.072;2023-05-14T06:57:54;5.30;;;2.15;;
35877;SDS011;21982;49.804;24.072;2023-05-14T07:00:20;8.15;;;2.97;;
35877;SDS011;21982;49.804;24.072;2023-05-14T07:02:47;8.45;;;2.50;;
35877;SDS011;21982;49.804;24.072;2023-05-14T07:05:12;8.18;;;2.22;;
35877;SDS011;21982;49.804;24.072;2023-05-14T07:07:38;7.18;;;2.60;;
35877;SDS011;21982;49.804;24.072;2023-05-14T07:10:03;6.55;;;2.63;;
35877;SDS011;21982;49.804;24.072;2023-05-14T07:12:29;4.95;;;2.20;;
35877;SDS011;21982;49.804;24.072;2023-05-14T07:14:55;6.05;;;2.22;;
35877;SDS011;21982;49.804;24.072;2023-05-14T07:17:21;5.72;;;2.25;;
35877;SDS011;21982;49.804;24.072;2023-05-14T07:19:46;5.85;;;2.13;;
35877;SDS011;21982;49.804;24.072;2023-05-14T07:22:11;6.05;;;2.63;;
35877;SDS011;21982;49.804;24.072;2023-05-14T07:24:37;8.80;;;1.95;;
35877;SDS011;21982;49.804;24.072;2023-05-14T07:27:02;8.85;;;2.47;;
35877;SDS011;21982;49.804;24.072;2023-05-14T07:29:28;4.63;;;2.05;;
35877;SDS011;21982;49.804;24.072;2023-05-14T07:31:54;6.88;;;1.70;;
35877;SDS011;21982;49.804;24.072;2023-05-14T07:34:19;4.78;;;1.98;;
35877;SDS011;21982;49.804;24.072;2023-05-14T07:36:48;8.13;;;1.90;;
35877;SDS011;21982;49.804;24.072;2023-05-14T07:39:13;4.15;;;1.73;;
35877;SDS011;21982;49.804;24.072;2023-05-14T07:41:39;7.75;;;2.58;;
35877;SDS011;21982;49.804;24.072;2023-05-14T07:44:04;3.33;;;1.45;;
35877;SDS011;21982;49.804;24.072;2023-05-14T07:46:31;4.55;;;2.13;;
35877;SDS011;21982;49.804;24.072;2023-05-14T07:48:56;5.38;;;1.70;;
35877;SDS011;21982;49.804;24.072;2023-05-14T07:51:22;3.50;;;1.80;;
35877;SDS011;21982;49.804;24.072;2023-05-14T07:53:47;4.78;;;2.10;;
35877;SDS011;21982;49.804;24.072;2023-05-14T07:56:12;6.00;;;2.22;;
35877;SDS011;21982;49.804;24.072;2023-05-14T07:58:41;7.10;;;2.03;;
35877;SDS011;21982;49.804;24.072;2023-05-14T08:01:10;3.58;;;2.00;;
35877;SDS011;21982;49.804;24.072;2023-05-14T08:03:36;12.02;;;2.53;;
35877;SDS011;21982;49.804;24.072;2023-05-14T08:06:02;5.85;;;1.50;;
35877;SDS011;21982;49.804;24.072;2023-05-14T08:08:28;10.55;;;1.75;;
35877;SDS011;21982;49.804;24.072;2023-05-14T08:10:53;5.28;;;2.10;;
35877;SDS011;21982;49.804;24.072;2023-05-14T08:13:21;6.72;;;1.92;;
35877;SDS011;21982;49.804;24.072;2023-05-14T08:15:50;8.00;;;2.35;;
35877;SDS011;21982;49.804;24.072;2023-05-14T08:18:16;4.78;;;1.92;;
35877;SDS011;21982;49.804;24.072;2023-05-14T08:20:41;7.05;;;2.10;;
35877;SDS011;21982;49.804;24.072;2023-05-14T08:23:07;21.40;;;3.40;;
35877;SDS011;21982;49.804;24.072;2023-05-14T08:25:33;8.80;;;2.22;;
35877;SDS011;21982;49.804;24.072;2023-05-14T08:27:59;5.47;;;2.00;;
35877;SDS011;21982;49.804;24.072;2023-05-14T08:30:25;8.55;;;2.05;;
35877;SDS011;21982;49.804;24.072;2023-05-14T08:32:51;3.67;;;1.90;;
35877;SDS011;21982;49.804;24.072;2023-05-14T08:35:17;3.65;;;1.73;;
35877;SDS011;21982;49.804;24.072;2023-05-14T08:37:43;3.60;;;1.70;;
35877;SDS011;21982;49.804;24.072;2023-05-14T08:40:09;4.10;;;1.60;;
35877;SDS011;21982;49.804;24.072;2023-05-14T08:42:34;5.28;;;2.00;;
35877;SDS011;21982;49.804;24.072;2023-05-14T08:45:04;4.07;;;2.03;;
35877;SDS011;21982;49.804;24.072;2023-05-14T08:47:35;5.32;;;1.77;;
35877;SDS011;21982;49.804;24.072;2023-05-14T08:50:02;6.82;;;2.00;;
35877;SDS011;21982;49.804;24.072;2023-05-14T08:52:30;11.27;;;1.75;;
35877;SDS011;21982;49.804;24.072;2023-05-14T08:54:56;7.20;;;1.92;;
35877;SDS011;21982;49.804;24.072;2023-05-14T08:57:24;8.07;;;2.05;;
35877;SDS011;21982;49.804;24.072;2023-05-14T08:59:50;11.00;;;1.40;;
35877;SDS011;21982;49.804;24.072;2023-05-14T09:02:21;5.80;;;2.33;;
35877;SDS011;21982;49.804;24.072;2023-05-14T09:04:54;8.30;;;2.10;;
35877;SDS011;21982;49.804;24.072;2023-05-14T09:07:21;6.18;;;1.70;;
35877;SDS011;21982;49.804;24.072;2023-05-14T09:09:47;5.68;;;2.30;;
35877;SDS011;21982;49.804;24.072;2023-05-14T09:12:13;4.32;;;1.60;;
35877;SDS011;21982;49.804;24.072;2023-05-14T09:14:39;5.30;;;1.75;;
35877;SDS011;21982;49.804;24.072;2023-05-14T09:17:07;4.97;;;2.00;;
35877;SDS011;21982;49.804;24.072;2023-05-14T09:19:33;5.32;;;1.85;;
35877;SDS011;21982;49.804;24.072;2023-05-14T09:21:59;10.07;;;2.28;;
35877;SDS011;21982;49.804;24.072;2023-05-14T09:24:25;8.82;;;1.92;;
35877;SDS011;21982;49.804;24.072;2023-05-14T09:26:53;7.40;;;1.73;;
35877;SDS011;21982;49.804;24.072;2023-05-14T09:29:20;3.95;;;2.55;;
35877;SDS011;21982;49.804;24.072;2023-05-14T09:31:48;8.45;;;2.38;;
35877;SDS011;21982;49.804;24.072;2023-05-14T09:34:25;5.90;;;2.03;;
35877;SDS011;21982;49.804;24.072;2023-05-14T09:36:55;3.65;;;1.90;;
35877;SDS011;21982;49.804;24.072;2023-05-14T09:39:37;6.93;;;2.33;;
35877;SDS011;21982;49.804;24.072;2023-05-14T09:42:05;6.25;;;1.90;;
35877;SDS011;21982;49.804;24.072;2023-05-14T09:44:30;3.45;;;1.77;;
35877;SDS011;21982;49.804;24.072;2023-05-14T09:46:56;19.38;;;2.88;;
35877;SDS011;21982;49.804;24.072;2023-05-14T09:49:23;15.70;;;2.05;;
35877;SDS011;21982;49.804;24.072;2023-05-14T09:51:50;7.55;;;1.83;;
35877;SDS011;21982;49.804;24.072;2023-05-14T09:54:16;25.83;;;3.67;;
35877;SDS011;21982;49.804;24.072;2023-05-14T09:56:42;4.22;;;2.03;;
35877;SDS011;21982;49.804;24.072;2023-05-14T09:59:08;8.18;;;2.35;;
35877;SDS011;21982;49.804;24.072;2023-05-14T10:01:34;4.60;;;2.10;;
35877;SDS011;21982;49.804;24.072;2023-05-14T10:04:05;5.20;;;2.13;;
35877;SDS011;21982;49.804;24.072;2023-05-14T10:06:32;5.30;;;2.03;;
35877;SDS011;21982;49.804;24.072;2023-05-14T10:09:04;4.03;;;1.65;;
35877;SDS011;21982;49.804;24.072;2023-05-14T10:11:59;5.07;;;1.75;;
35877;SDS011;21982;49.804;24.072;2023-05-14T10:14:32;3.75;;;2.10;;
35877;SDS011;21982;49.804;24.072;2023-05-14T10:17:13;5.53;;;1.75;;
35877;SDS011;21982;49.804;24.072;2023-05-14T10:19:42;9.10;;;2.00;;
35877;SDS011;21982;49.804;24.072;2023-05-14T10:22:13;8.27;;;2.25;;
35877;SDS011;21982;49.804;24.072;2023-05-14T10:27:18;6.45;;;1.90;;
35877;SDS011;21982;49.804;24.072;2023-05-14T10:29:49;7.45;;;1.85;;
35877;SDS011;21982;49.804;24.072;2023-05-14T10:32:17;15.18;;;2.30;;
35877;SDS011;21982;49.804;24.072;2023-05-14T10:34:44;5.72;;;1.83;;
35877;SDS011;21982;49.804;24.072;2023-05-14T10:37:16;7.88;;;1.60;;
35877;SDS011;21982;49.804;24.072;2023-05-14T10:42:24;4.35;;;1.88;;
35877;SDS011;21982;49.804;24.072;2023-05-14T10:45:05;3.55;;;1.85;;
35877;SDS011;21982;49.804;24.072;2023-05-14T10:47:43;3.08;;;1.80;;
35877;SDS011;21982;49.804;24.072;2023-05-14T10:50:11;4.72;;;2.15;;
35877;SDS011;21982;49.804;24.072;2023-05-14T10:52:40;5.40;;;1.98;;
35877;SDS011;21982;49.804;24.072;2023-05-14T10:55:07;8.55;;;1.75;;
35877;SDS011;21982;49.804;24.072;2023-05-14T10:57:36;4.82;;;1.23;;
35877;SDS011;21982;49.804;24.072;2023-05-14T11:00:05;3.35;;;1.58;;
35877;SDS011;21982;49.804;24.072;2023-05-14T11:02:36;6.10;;;2.55;;
35877;SDS011;21982;49.804;24.072;2023-05-14T11:05:13;6.75;;;1.75;;
35877;SDS011;21982;49.804;24.072;2023-05-14T11:10:07;6.15;;;1.63;;
35877;SDS011;21982;49.804;24.072;2023-05-14T11:12:55;3.83;;;1.75;;
35877;SDS011;21982;49.804;24.072;2023-05-14T11:15:22;2.58;;;1.48;;
35877;SDS011;21982;49.804;24.072;2023-05-14T11:17:50;3.28;;;1.52;;
35877;SDS011;21982;49.804;24.072;2023-05-14T11:20:17;3.20;;;1.52;;
35877;SDS011;21982;49.804;24.072;2023-05-14T11:22:44;3.83;;;1.55;;
35877;SDS011;21982;49.804;24.072;2023-05-14T11:25:12;6.93;;;2.28;;
35877;SDS011;21982;49.804;24.072;2023-05-14T11:27:39;4.55;;;1.90;;
35877;SDS011;21982;49.804;24.072;2023-05-14T11:30:15;3.17;;;1.48;;
35877;SDS011;21982;49.804;24.072;2023-05-14T11:32:43;5.97;;;2.05;;
35877;SDS011;21982;49.804;24.072;2023-05-14T11:35:10;4.75;;;1.77;;
35877;SDS011;21982;49.804;24.072;2023-05-14T11:37:35;10.18;;;1.88;;
35877;SDS011;21982;49.804;24.072;2023-05-14T11:40:01;5.38;;;1.25;;
35877;SDS011;21982;49.804;24.072;2023-05-14T11:42:28;4.50;;;1.17;;
35877;SDS011;21982;49.804;24.072;2023-05-14T11:44:55;5.93;;;1.60;;
35877;SDS011;21982;49.804;24.072;2023-05-14T11:47:20;5.57;;;1.30;;
35877;SDS011;21982;49.804;24.072;2023-05-14T11:49:47;3.78;;;1.42;;
35877;SDS011;21982;49.804;24.072;2023-05-14T11:52:13;4.05;;;1.67;;
35877;SDS011;21982;49.804;24.072;2023-05-14T11:54:44;3.80;;;1.75;;
35877;SDS011;21982;49.804;24.072;2023-05-14T11:57:15;2.05;;;1.17;;
35877;SDS011;21982;49.804;24.072;2023-05-14T11:59:44;4.80;;;1.50;;
35877;SDS011;21982;49.804;24.072;2023-05-14T12:02:16;3.22;;;1.70;;
35877;SDS011;21982;49.804;24.072;2023-05-14T12:04:43;8.18;;;1.92;;
35877;SDS011;21982;49.804;24.072;2023-05-14T12:07:15;9.32;;;1.92;;
35877;SDS011;21982;49.804;24.072;2023-05-14T12:09:42;4.68;;;1.70;;
35877;SDS011;21982;49.804;24.072;2023-05-14T12:12:15;5.75;;;1.55;;
35877;SDS011;21982;49.804;24.072;2023-05-14T12:14:42;10.93;;;1.92;;
35877;SDS011;21982;49.804;24.072;2023-05-14T12:17:12;4.32;;;1.50;;
35877;SDS011;21982;49.804;24.072;2023-05-14T12:19:40;5.32;;;1.58;;
35877;SDS011;21982;49.804;24.072;2023-05-14T12:22:06;4.68;;;1.48;;
35877;SDS011;21982;49.804;24.072;2023-05-14T12:24:32;4.82;;;1.55;;
35877;SDS011;21982;49.804;24.072;2023-05-14T12:26:59;5.05;;;1.75;;
35877;SDS011;21982;49.804;24.072;2023-05-14T12:29:25;3.88;;;1.60;;
35877;SDS011;21982;49.804;24.072;2023-05-14T12:31:50;3.58;;;2.10;;
35877;SDS011;21982;49.804;24.072;2023-05-14T12:34:16;4.82;;;1.92;;
35877;SDS011;21982;49.804;24.072;2023-05-14T12:36:42;14.88;;;2.58;;
35877;SDS011;21982;49.804;24.072;2023-05-14T12:39:08;8.05;;;1.85;;
35877;SDS011;21982;49.804;24.072;2023-05-14T12:41:34;10.80;;;2.28;;
35877;SDS011;21982;49.804;24.072;2023-05-14T12:43:59;4.03;;;1.35;;
35877;SDS011;21982;49.804;24.072;2023-05-14T12:46:26;9.48;;;1.58;;
35877;SDS011;21982;49.804;24.072;2023-05-14T12:48:52;8.52;;;2.15;;
35877;SDS011;21982;49.804;24.072;2023-05-14T12:51:18;4.38;;;1.20;;
35877;SDS011;21982;49.804;24.072;2023-05-14T12:53:44;5.30;;;2.00;;
35877;SDS011;21982;49.804;24.072;2023-05-14T12:56:09;3.75;;;1.83;;
35877;SDS011;21982;49.804;24.072;2023-05-14T12:58:36;3.92;;;1.75;;
35877;SDS011;21982;49.804;24.072;2023-05-14T13:01:03;5.75;;;1.65;;
35877;SDS011;21982;49.804;24.072;2023-05-14T13:03:30;3.03;;;1.77;;
35877;SDS011;21982;49.804;24.072;2023-05-14T13:05:57;6.30;;;1.77;;
35877;SDS011;21982;49.804;24.072;2023-05-14T13:08:23;4.55;;;1.52;;
35877;SDS011;21982;49.804;24.072;2023-05-14T13:10:52;4.60;;;2.42;;
35877;SDS011;21982;49.804;24.072;2023-05-14T13:15:54;14.52;;;2.45;;
35877;SDS011;21982;49.804;24.072;2023-05-14T13:18:21;9.88;;;2.40;;
35877;SDS011;21982;49.804;24.072;2023-05-14T13:20:46;22.63;;;3.00;;
35877;SDS011;21982;49.804;24.072;2023-05-14T13:23:12;4.78;;;1.65;;
35877;SDS011;21982;49.804;24.072;2023-05-14T13:25:38;4.65;;;2.10;;
35877;SDS011;21982;49.804;24.072;2023-05-14T13:28:05;5.35;;;1.90;;
35877;SDS011;21982;49.804;24.072;2023-05-14T13:30:31;3.83;;;1.50;;
35877;SDS011;21982;49.804;24.072;2023-05-14T13:32:56;3.30;;;1.17;;
35877;SDS011;21982;49.804;24.072;2023-05-14T13:35:23;4.00;;;1.60;;
35877;SDS011;21982;49.804;24.072;2023-05-14T13:37:49;5.30;;;1.75;;
35877;SDS011;21982;49.804;24.072;2023-05-14T13:40:14;7.05;;;1.50;;
35877;SDS011;21982;49.804;24.072;2023-05-14T13:42:40;3.53;;;1.52;;
35877;SDS011;21982;49.804;24.072;2023-05-14T13:45:06;3.10;;;1.40;;
35877;SDS011;21982;49.804;24.072;2023-05-14T13:47:32;3.88;;;1.60;;
35877;SDS011;21982;49.804;24.072;2023-05-14T13:49:58;12.95;;;1.77;;
35877;SDS011;21982;49.804;24.072;2023-05-14T13:52:24;4.82;;;1.77;;
35877;SDS011;21982;49.804;24.072;2023-05-14T13:54:49;5.03;;;1.40;;
35877;SDS011;21982;49.804;24.072;2023-05-14T13:57:15;4.70;;;1.70;;
35877;SDS011;21982;49.804;24.072;2023-05-14T13:59:40;4.90;;;1.52;;
35877;SDS011;21982;49.804;24.072;2023-05-14T14:02:06;11.55;;;2.60;;
35877;SDS011;21982;49.804;24.072;2023-05-14T14:04:32;8.60;;;1.70;;
35877;SDS011;21982;49.804;24.072;2023-05-14T14:06:57;3.28;;;1.45;;
35877;SDS011;21982;49.804;24.072;2023-05-14T14:09:23;11.73;;;3.40;;
35877;SDS011;21982;49.804;24.072;2023-05-14T14:11:48;4.30;;;2.30;;
35877;SDS011;21982;49.804;24.072;2023-05-14T14:16:42;4.50;;;1.85;;
35877;SDS011;21982;49.804;24.072;2023-05-14T14:19:09;4.60;;;1.38;;
35877;SDS011;21982;49.804;24.072;2023-05-14T14:21:35;4.35;;;1.50;;
35877;SDS011;21982;49.804;24.072;2023-05-14T14:24:03;3.95;;;1.55;;
35877;SDS011;21982;49.804;24.072;2023-05-14T14:26:29;4.20;;;1.30;;
35877;SDS011;21982;49.804;24.072;2023-05-14T14:28:55;9.02;;;2.10;;
35877;SDS011;21982;49.804;24.072;2023-05-14T14:31:21;7.65;;;1.70;;
35877;SDS011;21982;49.804;24.072;2023-05-14T14:33:47;9.75;;;1.50;;
35877;SDS011;21982;49.804;24.072;2023-05-14T14:36:12;5.82;;;1.55;;
35877;SDS011;21982;49.804;24.072;2023-05-14T14:38:38;9.40;;;1.70;;
35877;SDS011;21982;49.804;24.072;2023-05-14T14:41:05;5.68;;;1.65;;
35877;SDS011;21982;49.804;24.072;2023-05-14T14:43:41;3.70;;;1.35;;
35877;SDS011;21982;49.804;24.072;2023-05-14T14:46:28;6.53;;;1.75;;
35877;SDS011;21982;49.804;24.072;2023-05-14T14:48:53;4.60;;;1.23;;
35877;SDS011;21982;49.804;24.072;2023-05-14T14:51:18;5.38;;;1.58;;
35877;SDS011;21982;49.804;24.072;2023-05-14T14:53:45;7.50;;;2.28;;
35877;SDS011;21982;49.804;24.072;2023-05-14T14:56:11;8.07;;;1.55;;
35877;SDS011;21982;49.804;24.072;2023-05-14T14:58:37;5.38;;;2.17;;